Arden, NY

6:43 AM EDT on September 15, 2014 (GMT -0400)
Stewart International | Change Station
CLOSE
Current Station
Airport
Location: Newburgh,
Elevation: 492 ft
Nearby Weather Stations

Elev 492 ft 41.50 °N, 74.10 °W | Updated 58 minutes ago

Mostly Cloudy
Mostly Cloudy
48 °F
Feels Like 48 °F
N
0
Wind Variable Wind from North

Today
High -- | Low -- °F
--% Chance of Precip.
Yesterday
High -- | Low -- °F
Precip. -- in
6:37 AM 7:05 PM
Waning Gibbous, 56% visible
Pressure 30.25 in
Visibility 10.0 miles
Clouds Few 400 ft
Mostly Cloudy 5000 ft
Dew Point 48 °F
Humidity 100%
Rainfall 0.00 in
Snow Depth Not available.
UV 0 out of 12
Pollen 4.20 out of 12
PM2.5 Good
Flu Activity Not available.
METAR KSWF 150945Z 00000KT 10SM FEW004 BKN050 09/09 A3025

More Conditions Fewer Conditions

Pressure 30.25 in
Visibility 10.0 miles
Clouds Few 400 ft
Mostly Cloudy 5000 ft
Dew Point 48 °F
Humidity 100%
Rainfall 0.00 in
Snow Depth Not available.
UV 0 out of 12
Pollen 4.20 out of 12
PM2.5 Good
Flu Activity Not available.
METAR KSWF 150945Z 00000KT 10SM FEW004 BKN050 09/09 A3025

More Conditions Fewer Conditions

10-Day Weather Forecast

Almanac

Astronomy

Sep. 15, 2014 Rise Set
Actual Time 6:37 AM EDT 7:05 PM EDT
Civil Twilight 6:09 AM EDT 7:33 PM EDT
Nautical Twilight 5:36 AM EDT 8:06 PM EDT
Astronomical Twilight 5:02 AM EDT 8:39 PM EDT
Moon 11:42 PM EDT 1:38 PM EDT
Length of Visible Light 13h 24m
Length of Day
12h 28m
Tomorrow will be 2m 43s shorter.
Waning Gibbous, 56% of the Moon is Illuminated
Today
Waning Gibbous
Sep 15
Last Quarter
Sep 24
New
Oct 1
First Quarter
Oct 8
Full

Today's Extremes

State Highs State Lows

Community

WunderPhotos

Upload Photos

1,753,428 photos uploaded!

WunderBlogs® & News

By Dr. Jeff Masters
Director of Meteorology, Weather Underground
By Kari Strenfel
Meteorologist, Weather Underground
By Christopher C. Burt
Weather Historian, Weather Underground
September 15, 2014
September 15, 2014
September 15, 2014

Nearby

Air Quality

  Air Quality AQ Index Pollutant
Yesterday Good
OZONE
Yesterday Good
PM2.5
Current Good
PM2.5
Monday Good
OZONE
Monday Good
PM2.5

Snow Depth

Station Depth Elevation
No new snow has been reported.

Earthquake Activity

City Distance Mag. Time & Date
No recent earthquake activity has been reported nearby.
Minimum magnitude displayed is 2.5.

Coastal Water Temperatures

Place Temperature
No Stations Reporting

Nearby Weather Stations